createdAt,value
2018-02-17T00:00:59.041Z,68.90
2018-02-17T00:03:27.304Z,68.90
2018-02-17T00:05:54.759Z,68.90
2018-02-17T00:08:22.528Z,69.10
2018-02-17T00:10:50.218Z,69.40
2018-02-17T00:13:17.678Z,69.60
2018-02-17T00:15:45.139Z,69.70
2018-02-17T00:18:12.587Z,69.20
2018-02-17T00:20:40.054Z,68.90
2018-02-17T00:23:07.571Z,68.80
2018-02-17T00:25:35.045Z,68.90
2018-02-17T00:28:02.502Z,69.00
2018-02-17T00:30:29.958Z,69.20
2018-02-17T00:32:57.710Z,68.70
2018-02-17T00:35:25.174Z,68.40
2018-02-17T00:37:52.646Z,68.30
2018-02-17T00:40:20.102Z,68.50
2018-02-17T00:42:47.575Z,68.50
2018-02-17T00:45:15.188Z,68.90
2018-02-17T00:47:42.654Z,69.10
2018-02-17T00:50:10.229Z,69.00
2018-02-17T00:52:37.698Z,68.70
2018-02-17T00:55:05.366Z,68.70
2018-02-17T00:57:32.841Z,69.00
2018-02-17T01:00:00.297Z,68.80
2018-02-17T01:02:27.766Z,68.80
2018-02-17T01:04:55.222Z,69.20
2018-02-17T01:07:22.696Z,69.50
2018-02-17T01:09:50.198Z,69.10
2018-02-17T01:12:17.674Z,69.10
2018-02-17T01:14:45.138Z,69.50
2018-02-17T01:17:12.810Z,68.50
2018-02-17T01:19:40.265Z,68.50
2018-02-17T01:22:07.717Z,68.40
2018-02-17T01:24:35.174Z,68.40
2018-02-17T01:27:02.638Z,68.10
2018-02-17T01:29:30.106Z,68.10
2018-02-17T01:31:57.566Z,68.10
2018-02-17T01:34:25.087Z,68.30
2018-02-17T01:36:52.854Z,68.40
2018-02-17T01:39:20.314Z,68.20
2018-02-17T01:41:47.770Z,68.20
2018-02-17T01:44:15.250Z,68.30
2018-02-17T01:46:42.990Z,68.60
2018-02-17T01:49:10.751Z,68.80
2018-02-17T01:51:38.511Z,68.90
2018-02-17T01:54:05.974Z,68.50
2018-02-17T01:56:33.513Z,68.00
2018-02-17T01:59:00.975Z,68.00
2018-02-17T02:01:28.430Z,68.20
2018-02-17T02:03:55.888Z,68.40
2018-02-17T02:06:23.367Z,68.80
2018-02-17T02:08:50.826Z,68.50
2018-02-17T02:11:18.282Z,68.70
2018-02-17T02:13:45.741Z,68.40
2018-02-17T02:16:13.217Z,68.40
2018-02-17T02:18:41.434Z,68.80
2018-02-17T02:21:08.899Z,68.80
2018-02-17T02:23:36.350Z,68.70
2018-02-17T02:26:03.807Z,68.70
2018-02-17T02:28:31.254Z,68.50
2018-02-17T02:30:58.711Z,68.20
2018-02-17T02:33:26.162Z,67.90
2018-02-17T02:35:53.638Z,68.40
2018-02-17T02:38:21.087Z,68.60
2018-02-17T02:40:48.551Z,69.00
2018-02-17T02:43:16.764Z,69.20
2018-02-17T02:45:44.993Z,68.90
2018-02-17T02:48:12.477Z,69.30
2018-02-17T02:50:39.937Z,69.30
2018-02-17T02:53:07.401Z,69.00
2018-02-17T02:55:34.874Z,68.80
2018-02-17T02:58:02.358Z,68.40
2018-02-17T03:00:29.828Z,68.40
2018-02-17T03:02:57.295Z,68.70
2018-02-17T03:05:24.763Z,69.10
2018-02-17T03:07:52.214Z,69.30
2018-02-17T03:10:19.665Z,69.20
2018-02-17T03:12:47.118Z,69.10
2018-02-17T03:15:14.570Z,68.90
2018-02-17T03:17:42.027Z,68.80
2018-02-17T03:20:09.506Z,68.50
2018-02-17T03:22:36.967Z,68.40
2018-02-17T03:25:04.410Z,68.60
2018-02-17T03:27:31.878Z,68.50
2018-02-17T03:29:59.326Z,68.90
2018-02-17T03:32:26.797Z,68.80
2018-02-17T03:34:54.242Z,69.20
2018-02-17T03:37:21.706Z,68.60
2018-02-17T03:39:49.148Z,68.60
2018-02-17T03:42:16.610Z,68.90
2018-02-17T03:44:44.058Z,68.60
2018-02-17T03:47:11.518Z,68.30
2018-02-17T03:49:38.969Z,68.30
2018-02-17T03:52:06.425Z,68.10
2018-02-17T03:54:33.878Z,68.30
2018-02-17T03:57:01.341Z,68.00
2018-02-17T03:59:28.797Z,67.70
2018-02-17T04:01:56.260Z,67.90
2018-02-17T04:04:23.719Z,67.90
2018-02-17T04:06:51.179Z,67.90
2018-02-17T04:09:18.627Z,67.70
2018-02-17T04:11:46.098Z,68.10
2018-02-17T04:14:13.554Z,68.40
2018-02-17T04:16:41.010Z,68.20
2018-02-17T04:19:08.466Z,68.40
2018-02-17T04:21:35.927Z,68.60
2018-02-17T04:24:03.390Z,68.20
2018-02-17T04:26:30.834Z,68.20
2018-02-17T04:28:58.290Z,67.70
2018-02-17T04:31:25.753Z,67.70
2018-02-17T04:33:53.214Z,67.70
2018-02-17T04:36:20.666Z,67.80
2018-02-17T04:38:48.122Z,67.60
2018-02-17T04:41:16.019Z,67.30
2018-02-17T04:43:46.065Z,67.30
2018-02-17T04:46:18.101Z,67.50
2018-02-17T04:48:57.383Z,67.60
2018-02-17T04:51:42.654Z,67.90
2018-02-17T04:54:24.814Z,67.70
2018-02-17T04:56:57.956Z,67.80
2018-02-17T04:59:29.250Z,67.50
2018-02-17T05:02:09.408Z,67.30
2018-02-17T05:04:53.699Z,67.10
2018-02-17T05:07:25.142Z,66.90
2018-02-17T05:09:52.605Z,66.70
2018-02-17T05:12:20.070Z,66.60
2018-02-17T05:14:50.139Z,66.90
2018-02-17T05:17:38.376Z,66.90
2018-02-17T05:20:07.270Z,66.70
2018-02-17T05:22:35.185Z,66.40
2018-02-17T05:25:08.190Z,66.40
2018-02-17T05:27:37.219Z,66.40
2018-02-17T05:30:04.694Z,67.00
2018-02-17T05:32:32.594Z,66.30
2018-02-17T05:35:00.861Z,66.40
2018-02-17T05:37:28.317Z,66.10
2018-02-17T05:40:12.566Z,66.40
2018-02-17T05:42:40.040Z,66.50
2018-02-17T05:45:25.114Z,66.50
2018-02-17T05:47:57.294Z,66.80
2018-02-17T05:50:25.328Z,66.70
2018-02-17T05:52:52.846Z,66.70
2018-02-17T05:55:20.299Z,66.70
2018-02-17T05:57:47.766Z,66.50
2018-02-17T06:00:15.222Z,66.30
2018-02-17T06:02:42.694Z,66.20
2018-02-17T06:05:10.158Z,66.30
2018-02-17T06:07:37.642Z,66.30
2018-02-17T06:10:05.089Z,66.20
2018-02-17T06:12:32.549Z,66.30
2018-02-17T06:15:00.010Z,66.00
2018-02-17T06:17:27.519Z,66.20
2018-02-17T06:19:55.230Z,66.10
2018-02-17T06:22:22.678Z,66.00
2018-02-17T06:24:50.146Z,65.80
2018-02-17T06:27:17.906Z,65.60
2018-02-17T06:29:45.359Z,65.50
2018-02-17T06:32:12.813Z,65.70
2018-02-17T06:34:40.331Z,65.80
2018-02-17T06:37:07.839Z,65.40
2018-02-17T06:39:35.490Z,65.40
2018-02-17T06:42:02.943Z,65.60
2018-02-17T06:44:30.410Z,65.80
2018-02-17T06:46:59.378Z,65.60
2018-02-17T06:49:26.863Z,65.60
2018-02-17T06:51:54.332Z,65.50
2018-02-17T06:54:21.803Z,65.50
2018-02-17T06:56:49.290Z,65.30
2018-02-17T06:59:16.758Z,65.50
2018-02-17T07:01:44.224Z,65.50
2018-02-17T07:04:12.003Z,65.60
2018-02-17T07:06:39.442Z,65.50
2018-02-17T07:09:06.890Z,65.20
2018-02-17T07:11:34.360Z,64.90
2018-02-17T07:14:01.806Z,65.20
2018-02-17T07:16:29.286Z,65.60
2018-02-17T07:18:56.742Z,65.80
2018-02-17T07:21:24.202Z,65.50
2018-02-17T07:23:51.654Z,65.70
2018-02-17T07:26:19.196Z,65.60
2018-02-17T07:28:46.651Z,65.30
2018-02-17T07:31:14.118Z,65.20
2018-02-17T07:33:41.569Z,65.10
2018-02-17T07:36:09.037Z,65.10
2018-02-17T07:38:36.481Z,65.20
2018-02-17T07:41:03.975Z,65.30
2018-02-17T07:43:31.414Z,65.10
2018-02-17T07:45:58.866Z,65.60
2018-02-17T07:48:26.322Z,64.70
2018-02-17T07:50:53.779Z,65.10
2018-02-17T07:53:21.241Z,65.20
2018-02-17T07:55:48.698Z,65.30
2018-02-17T07:58:16.927Z,65.30
2018-02-17T08:00:44.374Z,65.30
2018-02-17T08:03:11.850Z,65.00
2018-02-17T08:05:39.354Z,64.90
2018-02-17T08:08:07.585Z,64.80
2018-02-17T08:10:35.050Z,64.80
2018-02-17T08:13:02.528Z,64.90
2018-02-17T08:15:29.982Z,64.70
2018-02-17T08:17:57.474Z,65.00
2018-02-17T08:20:24.915Z,65.10
2018-02-17T08:22:52.378Z,64.90
2018-02-17T08:25:19.829Z,64.80
2018-02-17T08:27:47.299Z,64.60
2018-02-17T08:30:14.743Z,64.40
2018-02-17T08:32:42.205Z,64.10
2018-02-17T08:35:09.658Z,64.10
2018-02-17T08:37:37.209Z,64.00
2018-02-17T08:40:05.425Z,64.00
2018-02-17T08:42:32.904Z,64.00
2018-02-17T08:45:00.363Z,64.10
2018-02-17T08:47:28.583Z,64.40
2018-02-17T08:49:56.811Z,64.40
2018-02-17T08:52:24.268Z,64.40
2018-02-17T08:54:51.727Z,64.10
2018-02-17T08:57:19.180Z,63.80
2018-02-17T08:59:46.636Z,63.80
2018-02-17T09:02:14.098Z,63.80
2018-02-17T09:04:41.551Z,63.60
2018-02-17T09:07:09.000Z,63.70
2018-02-17T09:09:36.467Z,63.60
2018-02-17T09:12:03.930Z,63.50
2018-02-17T09:14:31.394Z,63.60
2018-02-17T09:16:58.862Z,63.80
2018-02-17T09:19:26.506Z,64.00
2018-02-17T09:21:53.970Z,63.70
2018-02-17T09:24:22.326Z,63.70
2018-02-17T09:26:49.822Z,63.10
2018-02-17T09:29:17.282Z,63.20
2018-02-17T09:31:45.499Z,63.20
2018-02-17T09:34:12.967Z,63.30
2018-02-17T09:36:40.414Z,63.10
2018-02-17T09:39:07.886Z,63.40
2018-02-17T09:41:35.335Z,63.60
2018-02-17T09:44:02.793Z,63.30
2018-02-17T09:46:30.240Z,63.30
2018-02-17T09:48:57.714Z,63.00
2018-02-17T09:51:25.171Z,62.70
2018-02-17T09:53:52.651Z,63.00
2018-02-17T09:56:20.130Z,62.80
2018-02-17T09:58:48.334Z,62.10
2018-02-17T10:01:15.818Z,62.10
2018-02-17T10:03:43.273Z,61.90
2018-02-17T10:06:10.735Z,61.90
2018-02-17T10:08:38.195Z,62.00
2018-02-17T10:11:05.672Z,62.20
2018-02-17T10:13:33.123Z,62.80
2018-02-17T10:16:00.583Z,61.90
2018-02-17T10:18:28.054Z,62.00
2018-02-17T10:20:55.523Z,61.90
2018-02-17T10:23:22.974Z,61.70
2018-02-17T10:25:50.458Z,61.20
2018-02-17T10:28:17.907Z,61.00
2018-02-17T10:30:45.563Z,61.20
2018-02-17T10:33:13.035Z,61.00
2018-02-17T10:35:40.490Z,61.10
2018-02-17T10:38:07.964Z,61.20
2018-02-17T10:40:35.418Z,61.00
2018-02-17T10:43:02.867Z,61.10
2018-02-17T10:45:30.362Z,60.80
2018-02-17T10:47:57.829Z,60.40
2018-02-17T10:50:25.290Z,60.40
2018-02-17T10:52:53.510Z,60.50
2018-02-17T10:55:35.859Z,60.50
2018-02-17T10:58:03.325Z,60.20
2018-02-17T11:00:30.785Z,60.20
2018-02-17T11:02:58.254Z,60.40
2018-02-17T11:05:25.706Z,60.40
2018-02-17T11:07:53.161Z,60.80
2018-02-17T11:10:20.618Z,60.80
2018-02-17T11:12:48.090Z,60.60
2018-02-17T11:15:15.552Z,60.20
2018-02-17T11:17:43.024Z,59.90
2018-02-17T11:20:10.503Z,59.70
2018-02-17T11:22:37.963Z,59.50
2018-02-17T11:25:05.417Z,59.30
2018-02-17T11:27:32.877Z,59.30
2018-02-17T11:30:00.341Z,59.20
2018-02-17T11:32:27.798Z,59.00
2018-02-17T11:34:55.276Z,58.90
2018-02-17T11:37:22.775Z,59.10
2018-02-17T11:39:50.240Z,59.00
2018-02-17T11:42:17.698Z,58.80
2018-02-17T11:44:45.170Z,58.80
2018-02-17T11:47:12.645Z,58.80
2018-02-17T11:49:40.158Z,59.00
2018-02-17T11:52:07.604Z,59.20
2018-02-17T11:54:35.078Z,59.20
2018-02-17T11:57:02.650Z,58.90
2018-02-17T11:59:30.123Z,58.80
2018-02-17T12:01:57.646Z,58.80
2018-02-17T12:04:25.173Z,58.60
2018-02-17T12:06:52.642Z,58.60
2018-02-17T12:09:20.111Z,58.50
2018-02-17T12:11:47.784Z,58.50
2018-02-17T12:14:15.259Z,58.30
2018-02-17T12:16:42.727Z,58.50
2018-02-17T12:19:10.203Z,58.40
2018-02-17T12:21:37.682Z,58.20
2018-02-17T12:24:05.191Z,58.10
2018-02-17T12:26:32.654Z,58.10
2018-02-17T12:29:00.143Z,58.00
2018-02-17T12:31:27.598Z,57.90
2018-02-17T12:33:55.075Z,58.10
2018-02-17T12:36:22.543Z,58.20
2018-02-17T12:38:50.019Z,58.10
2018-02-17T12:41:17.488Z,58.00
2018-02-17T12:43:44.955Z,58.00
2018-02-17T12:46:12.418Z,57.90
2018-02-17T12:48:39.876Z,57.60
2018-02-17T12:51:07.358Z,57.50
2018-02-17T12:53:35.575Z,57.50
2018-02-17T12:56:03.036Z,57.50
2018-02-17T12:58:30.482Z,57.70
2018-02-17T13:00:57.951Z,57.60
2018-02-17T13:03:25.398Z,57.50
2018-02-17T13:05:52.858Z,57.50
2018-02-17T13:08:20.332Z,57.60
2018-02-17T13:10:47.803Z,57.70
2018-02-17T13:13:15.270Z,57.40
2018-02-17T13:15:42.730Z,57.70
2018-02-17T13:18:10.178Z,58.00
2018-02-17T13:20:37.654Z,58.30
2018-02-17T13:23:05.107Z,58.50
2018-02-17T13:25:32.570Z,58.50
2018-02-17T13:28:00.066Z,58.50
2018-02-17T13:30:27.526Z,58.50
2018-02-17T13:32:54.982Z,58.60
2018-02-17T13:35:22.457Z,58.60
2018-02-17T13:37:49.990Z,58.50
2018-02-17T13:40:17.442Z,58.40
2018-02-17T13:42:44.910Z,58.50
2018-02-17T13:45:12.364Z,58.30
2018-02-17T13:47:39.835Z,58.30
2018-02-17T13:50:07.386Z,58.30
2018-02-17T13:52:34.838Z,58.30
2018-02-17T13:55:02.300Z,58.30
2018-02-17T13:57:29.755Z,58.40
2018-02-17T13:59:57.223Z,58.40
2018-02-17T14:02:24.683Z,58.40
2018-02-17T14:04:52.894Z,58.40
2018-02-17T14:07:21.120Z,58.30
2018-02-17T14:09:48.575Z,58.20
2018-02-17T14:12:16.047Z,57.90
2018-02-17T14:14:44.372Z,57.60
2018-02-17T14:17:11.820Z,57.80
2018-02-17T14:19:39.286Z,57.70
2018-02-17T14:22:06.734Z,57.60
2018-02-17T14:24:34.233Z,57.60
2018-02-17T14:27:01.690Z,57.50
2018-02-17T14:29:29.147Z,57.60
2018-02-17T14:31:56.610Z,57.60
2018-02-17T14:34:24.066Z,57.40
2018-02-17T14:36:51.510Z,57.50
2018-02-17T14:39:18.970Z,57.50
2018-02-17T14:41:46.422Z,57.60
2018-02-17T14:44:13.888Z,57.70
2018-02-17T14:46:41.334Z,57.80
2018-02-17T14:49:08.837Z,57.80
2018-02-17T14:51:36.286Z,57.70
2018-02-17T14:54:03.763Z,57.80
2018-02-17T14:56:31.206Z,57.90
2018-02-17T14:58:58.662Z,57.80
2018-02-17T15:01:26.126Z,57.90
2018-02-17T15:03:53.585Z,57.80
2018-02-17T15:06:21.055Z,57.60
2018-02-17T15:08:48.506Z,57.30
2018-02-17T15:11:15.978Z,57.20
2018-02-17T15:13:43.434Z,57.10
2018-02-17T15:16:10.934Z,57.30
2018-02-17T15:18:38.382Z,57.50
2018-02-17T15:21:05.852Z,57.40
2018-02-17T15:23:33.313Z,57.40
2018-02-17T15:26:00.770Z,57.30
2018-02-17T15:28:28.220Z,57.30
2018-02-17T15:30:55.677Z,57.10
2018-02-17T15:33:23.132Z,57.00
2018-02-17T15:35:50.589Z,57.00
2018-02-17T15:38:18.038Z,57.00
2018-02-17T15:40:45.496Z,57.00
2018-02-17T15:43:12.955Z,57.20
2018-02-17T15:45:40.414Z,57.40
2018-02-17T15:48:07.904Z,57.30
2018-02-17T15:50:35.350Z,57.20
2018-02-17T15:53:02.810Z,57.10
2018-02-17T15:55:30.266Z,57.10
2018-02-17T15:57:57.726Z,57.10
2018-02-17T16:00:34.275Z,57.20
2018-02-17T16:03:04.626Z,57.20
2018-02-17T16:05:35.595Z,57.30
2018-02-17T16:08:03.420Z,57.40
2018-02-17T16:10:31.157Z,57.40
2018-02-17T16:12:59.494Z,57.40
2018-02-17T16:15:27.507Z,57.30
2018-02-17T16:17:55.346Z,57.10
2018-02-17T16:20:23.221Z,56.90
2018-02-17T16:22:51.764Z,56.70
2018-02-17T16:25:21.046Z,56.70
2018-02-17T16:27:48.805Z,56.80
2018-02-17T16:30:17.007Z,56.80
2018-02-17T16:32:45.429Z,56.90
2018-02-17T16:35:13.817Z,57.20
2018-02-17T16:37:42.715Z,57.50
2018-02-17T16:40:11.364Z,57.50
2018-02-17T16:42:39.068Z,57.40
2018-02-17T16:45:06.654Z,57.30
2018-02-17T16:47:34.480Z,57.20
2018-02-17T16:50:02.260Z,57.10
2018-02-17T16:52:29.916Z,57.40
2018-02-17T16:54:58.895Z,57.60
2018-02-17T16:57:26.525Z,57.50
2018-02-17T16:59:55.270Z,57.50
2018-02-17T17:02:24.340Z,57.40
2018-02-17T17:04:52.102Z,57.40
2018-02-17T17:07:20.766Z,57.40
2018-02-17T17:09:50.293Z,57.40
2018-02-17T17:12:19.321Z,57.40
2018-02-17T17:14:48.026Z,57.70
2018-02-17T17:17:17.894Z,57.70
2018-02-17T17:19:47.122Z,57.80
2018-02-17T17:22:16.730Z,57.70
2018-02-17T17:24:45.580Z,57.80
2018-02-17T17:27:15.502Z,57.70
2018-02-17T17:29:43.155Z,57.80
2018-02-17T17:32:11.299Z,57.70
2018-02-17T17:34:39.263Z,57.70
2018-02-17T17:37:08.160Z,57.70
2018-02-17T17:39:36.202Z,57.70
2018-02-17T17:42:05.608Z,57.80
2018-02-17T17:44:33.624Z,58.10
2018-02-17T17:47:03.080Z,58.40
2018-02-17T17:49:31.402Z,58.40
2018-02-17T17:52:00.232Z,58.80
2018-02-17T17:54:29.672Z,58.30
2018-02-17T17:56:57.905Z,58.30
2018-02-17T17:59:27.618Z,58.50
2018-02-17T18:01:58.116Z,58.70
2018-02-17T18:04:28.128Z,58.80
2018-02-17T18:06:57.720Z,58.80
2018-02-17T18:09:28.569Z,58.90
2018-02-17T18:11:59.667Z,58.90
2018-02-17T18:14:29.478Z,59.00
2018-02-17T18:16:58.247Z,59.00
2018-02-17T18:19:27.994Z,59.90
2018-02-17T18:21:57.936Z,59.30
2018-02-17T18:24:25.855Z,59.30
2018-02-17T18:26:54.847Z,59.30
2018-02-17T18:29:23.928Z,59.30
2018-02-17T18:31:52.168Z,59.30
2018-02-17T18:34:19.954Z,59.40
2018-02-17T18:36:49.099Z,59.30
2018-02-17T18:39:17.339Z,59.20
2018-02-17T18:41:46.559Z,59.20
2018-02-17T18:44:15.250Z,59.10
2018-02-17T18:46:45.656Z,59.10
2018-02-17T18:49:15.913Z,59.20
2018-02-17T18:51:46.307Z,59.30
2018-02-17T18:54:15.991Z,59.30
2018-02-17T18:56:45.501Z,59.40
2018-02-17T18:59:14.617Z,59.30
2018-02-17T19:01:42.275Z,59.40
2018-02-17T19:04:10.617Z,59.50
2018-02-17T19:06:39.209Z,59.50
2018-02-17T19:09:07.235Z,59.50
2018-02-17T19:11:36.513Z,59.70
2018-02-17T19:14:04.406Z,59.70
2018-02-17T19:16:33.237Z,59.60
2018-02-17T19:19:01.549Z,59.60
2018-02-17T19:21:32.212Z,59.70
2018-02-17T19:24:01.912Z,59.80
2018-02-17T19:26:29.810Z,59.80
2018-02-17T19:28:57.989Z,59.70
2018-02-17T19:31:27.378Z,59.70
2018-02-17T19:33:57.133Z,59.80
2018-02-17T19:36:25.339Z,59.70
2018-02-17T19:38:56.415Z,59.60
2018-02-17T19:41:26.290Z,59.60
2018-02-17T19:43:55.862Z,59.60
2018-02-17T19:46:25.857Z,59.40
2018-02-17T19:48:54.410Z,59.30
2018-02-17T19:51:22.431Z,59.20
2018-02-17T19:53:51.723Z,59.00
2018-02-17T19:56:19.593Z,59.10
2018-02-17T19:58:47.928Z,59.10
2018-02-17T20:01:16.532Z,59.00
2018-02-17T20:03:46.700Z,58.90
2018-02-17T20:06:14.827Z,58.60
2018-02-17T20:08:44.395Z,58.50
2018-02-17T20:11:12.363Z,58.50
2018-02-17T20:13:40.177Z,58.50
2018-02-17T20:16:08.783Z,58.50
2018-02-17T20:18:37.311Z,58.30
2018-02-17T20:21:05.708Z,58.20
2018-02-17T20:23:35.095Z,58.70
2018-02-17T20:26:04.433Z,58.10
2018-02-17T20:28:32.741Z,57.90
2018-02-17T20:31:01.360Z,57.80
2018-02-17T20:33:29.879Z,57.80
2018-02-17T20:35:59.981Z,57.80
2018-02-17T20:38:28.756Z,57.70
2018-02-17T20:40:58.479Z,57.70
2018-02-17T20:43:27.213Z,57.60
2018-02-17T20:45:56.292Z,57.40
2018-02-17T20:48:25.321Z,57.40
2018-02-17T20:50:54.693Z,57.10
2018-02-17T20:53:24.998Z,57.10
2018-02-17T20:55:55.186Z,57.20
2018-02-17T20:58:24.011Z,57.20
2018-02-17T21:00:52.620Z,57.20
2018-02-17T21:03:22.093Z,57.00
2018-02-17T21:05:51.590Z,56.90
2018-02-17T21:08:21.317Z,56.80
2018-02-17T21:10:51.686Z,56.80
2018-02-17T21:13:21.007Z,56.80
2018-02-17T21:15:49.574Z,56.70
2018-02-17T21:18:19.898Z,56.80
2018-02-17T21:20:49.806Z,57.00
2018-02-17T21:23:18.330Z,57.00
2018-02-17T21:25:49.436Z,57.00
2018-02-17T21:28:17.705Z,57.00
2018-02-17T21:30:47.226Z,57.20
2018-02-17T21:33:16.684Z,57.10
2018-02-17T21:35:44.670Z,57.30
2018-02-17T21:38:14.228Z,57.40
2018-02-17T21:40:44.417Z,57.40
2018-02-17T21:43:13.544Z,57.50
2018-02-17T21:45:45.007Z,57.60
2018-02-17T21:48:15.334Z,57.60
2018-02-17T21:50:45.201Z,58.10
2018-02-17T21:53:14.934Z,57.50
2018-02-17T21:55:43.244Z,57.50
2018-02-17T21:58:14.941Z,57.40
2018-02-17T22:00:44.516Z,57.30
2018-02-17T22:03:15.248Z,57.20
2018-02-17T22:05:42.695Z,57.30
2018-02-17T22:08:10.150Z,57.30
2018-02-17T22:10:37.605Z,57.30
2018-02-17T22:13:05.046Z,57.20
2018-02-17T22:15:32.514Z,57.20
2018-02-17T22:17:59.970Z,57.10
2018-02-17T22:20:27.429Z,57.10
2018-02-17T22:22:54.886Z,57.00
2018-02-17T22:25:22.341Z,57.00
2018-02-17T22:27:49.794Z,57.20
2018-02-17T22:30:17.254Z,57.20
2018-02-17T22:32:44.717Z,57.40
2018-02-17T22:35:12.174Z,57.30
2018-02-17T22:37:39.626Z,57.30
2018-02-17T22:40:07.082Z,57.40
2018-02-17T22:42:34.530Z,57.40
2018-02-17T22:45:01.990Z,57.50
2018-02-17T22:47:29.448Z,57.50
2018-02-17T22:49:56.906Z,57.50
2018-02-17T22:52:24.362Z,57.70
2018-02-17T22:54:51.818Z,57.80
2018-02-17T22:59:53.210Z,58.30
2018-02-17T23:02:20.667Z,58.40
2018-02-17T23:04:48.115Z,58.50
2018-02-17T23:07:15.578Z,58.50
2018-02-17T23:09:43.030Z,58.40
2018-02-17T23:12:10.494Z,58.20
2018-02-17T23:14:37.946Z,58.30
2018-02-17T23:17:05.465Z,58.50
2018-02-17T23:19:32.911Z,58.60
2018-02-17T23:22:00.369Z,58.70
2018-02-17T23:24:27.823Z,58.80
2018-02-17T23:26:55.282Z,58.80
2018-02-17T23:29:22.734Z,58.90
2018-02-17T23:31:50.195Z,58.90
2018-02-17T23:34:17.647Z,58.70
2018-02-17T23:36:45.109Z,58.60
2018-02-17T23:39:12.565Z,58.60
2018-02-17T23:41:40.030Z,58.60
2018-02-17T23:44:07.515Z,58.80
2018-02-17T23:46:34.935Z,59.00
2018-02-17T23:49:02.397Z,58.90
2018-02-17T23:51:29.851Z,59.10
2018-02-17T23:53:57.315Z,59.10
2018-02-17T23:56:24.758Z,59.20
2018-02-17T23:58:52.218Z,59.30
